sensor_id;sensor_type;location;lat;lon;timestamp;P1;durP1;ratioP1;P2;durP2;ratioP2
52033;SDS011;38045;52.988;6.536;2023-04-24T00:01:54;2.40;;;1.00;;
52033;SDS011;38045;52.988;6.536;2023-04-24T00:04:20;1.33;;;1.23;;
52033;SDS011;38045;52.988;6.536;2023-04-24T00:06:45;1.30;;;1.20;;
52033;SDS011;38045;52.988;6.536;2023-04-24T00:09:14;0.70;;;0.70;;
52033;SDS011;38045;52.988;6.536;2023-04-24T00:11:40;0.75;;;0.75;;
52033;SDS011;38045;52.988;6.536;2023-04-24T00:14:06;2.85;;;0.80;;
52033;SDS011;38045;52.988;6.536;2023-04-24T00:16:32;0.50;;;0.50;;
52033;SDS011;38045;52.988;6.536;2023-04-24T00:18:57;0.70;;;0.70;;
52033;SDS011;38045;52.988;6.536;2023-04-24T00:21:23;0.45;;;0.45;;
52033;SDS011;38045;52.988;6.536;2023-04-24T00:23:50;0.70;;;0.70;;
52033;SDS011;38045;52.988;6.536;2023-04-24T00:26:16;0.80;;;0.80;;
52033;SDS011;38045;52.988;6.536;2023-04-24T00:28:41;0.85;;;0.85;;
52033;SDS011;38045;52.988;6.536;2023-04-24T00:31:07;0.75;;;0.75;;
52033;SDS011;38045;52.988;6.536;2023-04-24T00:33:33;0.55;;;0.55;;
52033;SDS011;38045;52.988;6.536;2023-04-24T00:35:59;0.75;;;0.75;;
52033;SDS011;38045;52.988;6.536;2023-04-24T00:38:24;0.80;;;0.40;;
52033;SDS011;38045;52.988;6.536;2023-04-24T00:40:50;0.65;;;0.65;;
52033;SDS011;38045;52.988;6.536;2023-04-24T00:43:16;0.70;;;0.70;;
52033;SDS011;38045;52.988;6.536;2023-04-24T00:45:42;3.20;;;0.93;;
52033;SDS011;38045;52.988;6.536;2023-04-24T00:48:08;0.60;;;0.60;;
52033;SDS011;38045;52.988;6.536;2023-04-24T00:50:35;0.80;;;0.80;;
52033;SDS011;38045;52.988;6.536;2023-04-24T00:53:01;0.90;;;0.90;;
52033;SDS011;38045;52.988;6.536;2023-04-24T00:55:27;1.77;;;1.67;;
52033;SDS011;38045;52.988;6.536;2023-04-24T00:57:53;0.85;;;0.85;;
52033;SDS011;38045;52.988;6.536;2023-04-24T01:00:19;1.10;;;1.10;;
52033;SDS011;38045;52.988;6.536;2023-04-24T01:02:45;1.90;;;1.80;;
52033;SDS011;38045;52.988;6.536;2023-04-24T01:05:12;1.00;;;1.00;;
52033;SDS011;38045;52.988;6.536;2023-04-24T01:07:40;1.45;;;1.45;;
52033;SDS011;38045;52.988;6.536;2023-04-24T01:12:34;1.15;;;1.05;;
52033;SDS011;38045;52.988;6.536;2023-04-24T01:15:00;1.60;;;1.50;;
52033;SDS011;38045;52.988;6.536;2023-04-24T01:17:26;1.85;;;1.75;;
52033;SDS011;38045;52.988;6.536;2023-04-24T01:19:52;1.38;;;1.27;;
52033;SDS011;38045;52.988;6.536;2023-04-24T01:22:21;1.02;;;1.02;;
52033;SDS011;38045;52.988;6.536;2023-04-24T01:24:47;2.83;;;2.67;;
52033;SDS011;38045;52.988;6.536;2023-04-24T01:27:13;1.92;;;1.83;;
52033;SDS011;38045;52.988;6.536;2023-04-24T01:29:39;1.52;;;1.42;;
52033;SDS011;38045;52.988;6.536;2023-04-24T01:32:05;2.10;;;2.00;;
52033;SDS011;38045;52.988;6.536;2023-04-24T01:34:31;2.42;;;2.33;;
52033;SDS011;38045;52.988;6.536;2023-04-24T01:36:57;2.33;;;2.22;;
52033;SDS011;38045;52.988;6.536;2023-04-24T01:39:23;2.55;;;2.45;;
52033;SDS011;38045;52.988;6.536;2023-04-24T01:41:50;3.80;;;3.38;;
52033;SDS011;38045;52.988;6.536;2023-04-24T01:44:17;3.35;;;3.15;;
52033;SDS011;38045;52.988;6.536;2023-04-24T01:46:43;5.05;;;4.72;;
52033;SDS011;38045;52.988;6.536;2023-04-24T01:49:09;3.85;;;3.55;;
52033;SDS011;38045;52.988;6.536;2023-04-24T01:51:35;4.55;;;4.22;;
52033;SDS011;38045;52.988;6.536;2023-04-24T01:54:01;2.85;;;2.65;;
52033;SDS011;38045;52.988;6.536;2023-04-24T01:56:28;23.80;;;5.57;;
52033;SDS011;38045;52.988;6.536;2023-04-24T01:58:55;4.35;;;4.05;;
52033;SDS011;38045;52.988;6.536;2023-04-24T02:01:23;4.65;;;4.32;;
52033;SDS011;38045;52.988;6.536;2023-04-24T02:03:49;5.65;;;5.25;;
52033;SDS011;38045;52.988;6.536;2023-04-24T02:06:15;5.00;;;4.32;;
52033;SDS011;38045;52.988;6.536;2023-04-24T02:08:41;5.45;;;5.05;;
52033;SDS011;38045;52.988;6.536;2023-04-24T02:11:08;4.78;;;3.78;;
52033;SDS011;38045;52.988;6.536;2023-04-24T02:13:34;4.45;;;4.05;;
52033;SDS011;38045;52.988;6.536;2023-04-24T02:16:00;6.05;;;5.55;;
52033;SDS011;38045;52.988;6.536;2023-04-24T02:18:26;7.18;;;6.57;;
52033;SDS011;38045;52.988;6.536;2023-04-24T02:20:51;5.15;;;4.68;;
52033;SDS011;38045;52.988;6.536;2023-04-24T02:23:17;4.68;;;4.32;;
52033;SDS011;38045;52.988;6.536;2023-04-24T02:25:43;7.10;;;6.45;;
52033;SDS011;38045;52.988;6.536;2023-04-24T02:28:08;4.38;;;4.03;;
52033;SDS011;38045;52.988;6.536;2023-04-24T02:30:34;7.35;;;6.80;;
52033;SDS011;38045;52.988;6.536;2023-04-24T02:32:59;7.13;;;6.53;;
52033;SDS011;38045;52.988;6.536;2023-04-24T02:35:25;4.70;;;4.30;;
52033;SDS011;38045;52.988;6.536;2023-04-24T02:37:51;7.88;;;7.30;;
52033;SDS011;38045;52.988;6.536;2023-04-24T02:40:16;6.22;;;5.65;;
52033;SDS011;38045;52.988;6.536;2023-04-24T02:42:42;7.78;;;5.22;;
52033;SDS011;38045;52.988;6.536;2023-04-24T02:45:07;7.32;;;6.80;;
52033;SDS011;38045;52.988;6.536;2023-04-24T02:47:33;8.15;;;7.45;;
52033;SDS011;38045;52.988;6.536;2023-04-24T02:49:59;7.45;;;6.85;;
52033;SDS011;38045;52.988;6.536;2023-04-24T02:52:25;7.10;;;6.60;;
52033;SDS011;38045;52.988;6.536;2023-04-24T02:54:50;7.32;;;6.72;;
52033;SDS011;38045;52.988;6.536;2023-04-24T02:57:16;7.43;;;6.88;;
52033;SDS011;38045;52.988;6.536;2023-04-24T02:59:41;3.42;;;3.17;;
52033;SDS011;38045;52.988;6.536;2023-04-24T03:02:07;6.70;;;6.28;;
52033;SDS011;38045;52.988;6.536;2023-04-24T03:04:32;7.97;;;7.28;;
52033;SDS011;38045;52.988;6.536;2023-04-24T03:06:58;6.65;;;6.15;;
52033;SDS011;38045;52.988;6.536;2023-04-24T03:09:24;6.70;;;5.65;;
52033;SDS011;38045;52.988;6.536;2023-04-24T03:11:50;4.93;;;4.55;;
52033;SDS011;38045;52.988;6.536;2023-04-24T03:14:15;6.40;;;5.90;;
52033;SDS011;38045;52.988;6.536;2023-04-24T03:16:41;5.82;;;5.43;;
52033;SDS011;38045;52.988;6.536;2023-04-24T03:19:07;6.93;;;6.28;;
52033;SDS011;38045;52.988;6.536;2023-04-24T03:21:33;6.18;;;5.72;;
52033;SDS011;38045;52.988;6.536;2023-04-24T03:23:58;4.90;;;4.60;;
52033;SDS011;38045;52.988;6.536;2023-04-24T03:26:24;5.40;;;4.93;;
52033;SDS011;38045;52.988;6.536;2023-04-24T03:28:50;5.65;;;5.20;;
52033;SDS011;38045;52.988;6.536;2023-04-24T03:31:15;5.03;;;4.72;;
52033;SDS011;38045;52.988;6.536;2023-04-24T03:33:41;4.78;;;4.47;;
52033;SDS011;38045;52.988;6.536;2023-04-24T03:36:07;2.70;;;2.50;;
52033;SDS011;38045;52.988;6.536;2023-04-24T03:38:33;4.72;;;4.40;;
52033;SDS011;38045;52.988;6.536;2023-04-24T03:40:58;3.70;;;3.50;;
52033;SDS011;38045;52.988;6.536;2023-04-24T03:43:24;4.22;;;3.92;;
52033;SDS011;38045;52.988;6.536;2023-04-24T03:45:49;4.75;;;3.97;;
52033;SDS011;38045;52.988;6.536;2023-04-24T03:48:15;4.30;;;4.00;;
52033;SDS011;38045;52.988;6.536;2023-04-24T03:50:41;4.90;;;4.35;;
52033;SDS011;38045;52.988;6.536;2023-04-24T03:53:07;3.20;;;3.00;;
52033;SDS011;38045;52.988;6.536;2023-04-24T03:55:33;4.25;;;3.95;;
52033;SDS011;38045;52.988;6.536;2023-04-24T03:57:58;5.63;;;4.50;;
52033;SDS011;38045;52.988;6.536;2023-04-24T04:00:24;4.30;;;4.00;;
52033;SDS011;38045;52.988;6.536;2023-04-24T04:02:51;4.20;;;3.90;;
52033;SDS011;38045;52.988;6.536;2023-04-24T04:05:16;4.50;;;4.10;;
52033;SDS011;38045;52.988;6.536;2023-04-24T04:07:42;4.38;;;3.22;;
52033;SDS011;38045;52.988;6.536;2023-04-24T04:10:07;4.90;;;4.50;;
52033;SDS011;38045;52.988;6.536;2023-04-24T04:12:33;4.53;;;4.13;;
52033;SDS011;38045;52.988;6.536;2023-04-24T04:14:59;5.30;;;4.90;;
52033;SDS011;38045;52.988;6.536;2023-04-24T04:17:25;6.22;;;5.63;;
52033;SDS011;38045;52.988;6.536;2023-04-24T04:19:50;4.95;;;4.55;;
52033;SDS011;38045;52.988;6.536;2023-04-24T04:22:16;4.85;;;4.55;;
52033;SDS011;38045;52.988;6.536;2023-04-24T04:24:41;5.85;;;5.45;;
52033;SDS011;38045;52.988;6.536;2023-04-24T04:27:07;4.55;;;4.22;;
52033;SDS011;38045;52.988;6.536;2023-04-24T04:29:33;4.20;;;3.90;;
52033;SDS011;38045;52.988;6.536;2023-04-24T04:32:00;3.42;;;3.22;;
52033;SDS011;38045;52.988;6.536;2023-04-24T04:34:26;2.92;;;2.72;;
52033;SDS011;38045;52.988;6.536;2023-04-24T04:36:51;2.08;;;1.95;;
52033;SDS011;38045;52.988;6.536;2023-04-24T04:39:17;3.15;;;2.85;;
52033;SDS011;38045;52.988;6.536;2023-04-24T04:41:43;2.10;;;1.85;;
52033;SDS011;38045;52.988;6.536;2023-04-24T04:44:09;1.55;;;1.45;;
52033;SDS011;38045;52.988;6.536;2023-04-24T04:46:34;1.83;;;1.73;;
52033;SDS011;38045;52.988;6.536;2023-04-24T04:49:02;1.80;;;1.48;;
52033;SDS011;38045;52.988;6.536;2023-04-24T04:51:27;1.33;;;1.33;;
52033;SDS011;38045;52.988;6.536;2023-04-24T04:53:53;1.25;;;1.15;;
52033;SDS011;38045;52.988;6.536;2023-04-24T04:56:19;1.88;;;0.50;;
52033;SDS011;38045;52.988;6.536;2023-04-24T04:58:44;3.92;;;1.00;;
52033;SDS011;38045;52.988;6.536;2023-04-24T05:01:10;0.50;;;0.50;;
52033;SDS011;38045;52.988;6.536;2023-04-24T05:03:35;2.33;;;0.88;;
52033;SDS011;38045;52.988;6.536;2023-04-24T05:06:01;3.13;;;1.00;;
52033;SDS011;38045;52.988;6.536;2023-04-24T05:08:27;1.30;;;1.00;;
52033;SDS011;38045;52.988;6.536;2023-04-24T05:10:53;1.23;;;0.63;;
52033;SDS011;38045;52.988;6.536;2023-04-24T05:13:19;3.40;;;1.10;;
52033;SDS011;38045;52.988;6.536;2023-04-24T05:15:45;1.00;;;1.00;;
52033;SDS011;38045;52.988;6.536;2023-04-24T05:18:11;1.13;;;1.13;;
52033;SDS011;38045;52.988;6.536;2023-04-24T05:20:37;0.98;;;0.98;;
52033;SDS011;38045;52.988;6.536;2023-04-24T05:23:02;1.83;;;1.73;;
52033;SDS011;38045;52.988;6.536;2023-04-24T05:25:28;1.67;;;1.58;;
52033;SDS011;38045;52.988;6.536;2023-04-24T05:27:53;1.13;;;0.98;;
52033;SDS011;38045;52.988;6.536;2023-04-24T05:30:19;2.13;;;1.92;;
52033;SDS011;38045;52.988;6.536;2023-04-24T05:32:45;1.63;;;1.50;;
52033;SDS011;38045;52.988;6.536;2023-04-24T05:35:11;4.95;;;3.00;;
52033;SDS011;38045;52.988;6.536;2023-04-24T05:37:37;2.38;;;2.28;;
52033;SDS011;38045;52.988;6.536;2023-04-24T05:40:02;2.03;;;1.92;;
52033;SDS011;38045;52.988;6.536;2023-04-24T05:42:30;2.17;;;2.08;;
52033;SDS011;38045;52.988;6.536;2023-04-24T05:44:56;2.13;;;1.80;;
52033;SDS011;38045;52.988;6.536;2023-04-24T05:47:22;1.25;;;1.23;;
52033;SDS011;38045;52.988;6.536;2023-04-24T05:49:47;1.70;;;1.60;;
52033;SDS011;38045;52.988;6.536;2023-04-24T05:52:13;0.98;;;0.98;;
52033;SDS011;38045;52.988;6.536;2023-04-24T05:54:39;1.20;;;1.10;;
52033;SDS011;38045;52.988;6.536;2023-04-24T05:57:04;2.95;;;1.60;;
52033;SDS011;38045;52.988;6.536;2023-04-24T05:59:38;2.00;;;1.10;;
52033;SDS011;38045;52.988;6.536;2023-04-24T06:02:04;1.23;;;1.13;;
52033;SDS011;38045;52.988;6.536;2023-04-24T06:04:31;1.05;;;1.00;;
52033;SDS011;38045;52.988;6.536;2023-04-24T06:06:57;1.52;;;1.42;;
52033;SDS011;38045;52.988;6.536;2023-04-24T06:09:24;1.75;;;1.65;;
52033;SDS011;38045;52.988;6.536;2023-04-24T06:11:50;2.22;;;1.83;;
52033;SDS011;38045;52.988;6.536;2023-04-24T06:14:19;2.58;;;2.15;;
52033;SDS011;38045;52.988;6.536;2023-04-24T06:16:45;1.80;;;1.70;;
52033;SDS011;38045;52.988;6.536;2023-04-24T06:19:10;2.58;;;2.38;;
52033;SDS011;38045;52.988;6.536;2023-04-24T06:21:36;1.77;;;1.67;;
52033;SDS011;38045;52.988;6.536;2023-04-24T06:24:01;1.55;;;1.45;;
52033;SDS011;38045;52.988;6.536;2023-04-24T06:26:29;1.30;;;1.20;;
52033;SDS011;38045;52.988;6.536;2023-04-24T06:28:55;4.38;;;1.75;;
52033;SDS011;38045;52.988;6.536;2023-04-24T06:31:20;1.85;;;1.75;;
52033;SDS011;38045;52.988;6.536;2023-04-24T06:33:47;1.55;;;1.45;;
52033;SDS011;38045;52.988;6.536;2023-04-24T06:36:14;3.25;;;1.70;;
52033;SDS011;38045;52.988;6.536;2023-04-24T06:38:40;3.15;;;2.85;;
52033;SDS011;38045;52.988;6.536;2023-04-24T06:41:06;2.95;;;2.63;;
52033;SDS011;38045;52.988;6.536;2023-04-24T06:43:32;2.75;;;2.47;;
52033;SDS011;38045;52.988;6.536;2023-04-24T06:45:58;4.38;;;3.38;;
52033;SDS011;38045;52.988;6.536;2023-04-24T06:48:24;3.28;;;2.20;;
52033;SDS011;38045;52.988;6.536;2023-04-24T06:50:50;3.50;;;3.20;;
52033;SDS011;38045;52.988;6.536;2023-04-24T06:53:17;4.80;;;4.28;;
52033;SDS011;38045;52.988;6.536;2023-04-24T06:55:42;5.03;;;4.53;;
52033;SDS011;38045;52.988;6.536;2023-04-24T06:58:09;5.22;;;4.65;;
52033;SDS011;38045;52.988;6.536;2023-04-24T07:00:35;4.28;;;3.58;;
52033;SDS011;38045;52.988;6.536;2023-04-24T07:03:01;5.13;;;4.50;;
52033;SDS011;38045;52.988;6.536;2023-04-24T07:05:27;6.47;;;4.65;;
52033;SDS011;38045;52.988;6.536;2023-04-24T07:07:53;4.47;;;4.07;;
52033;SDS011;38045;52.988;6.536;2023-04-24T07:10:19;7.35;;;4.80;;
52033;SDS011;38045;52.988;6.536;2023-04-24T07:12:45;6.53;;;3.78;;
52033;SDS011;38045;52.988;6.536;2023-04-24T07:15:11;6.28;;;4.72;;
52033;SDS011;38045;52.988;6.536;2023-04-24T07:17:37;5.45;;;4.30;;
52033;SDS011;38045;52.988;6.536;2023-04-24T07:20:08;5.32;;;3.78;;
52033;SDS011;38045;52.988;6.536;2023-04-24T07:22:35;3.88;;;3.53;;
52033;SDS011;38045;52.988;6.536;2023-04-24T07:25:02;5.50;;;4.68;;
52033;SDS011;38045;52.988;6.536;2023-04-24T07:27:28;4.63;;;3.78;;
52033;SDS011;38045;52.988;6.536;2023-04-24T07:29:53;3.95;;;3.65;;
52033;SDS011;38045;52.988;6.536;2023-04-24T07:32:19;5.60;;;3.00;;
52033;SDS011;38045;52.988;6.536;2023-04-24T07:34:45;3.88;;;3.28;;
52033;SDS011;38045;52.988;6.536;2023-04-24T07:37:11;5.15;;;2.30;;
52033;SDS011;38045;52.988;6.536;2023-04-24T07:39:36;4.30;;;2.10;;
52033;SDS011;38045;52.988;6.536;2023-04-24T07:42:02;4.57;;;2.78;;
52033;SDS011;38045;52.988;6.536;2023-04-24T07:44:28;3.63;;;2.70;;
52033;SDS011;38045;52.988;6.536;2023-04-24T07:46:54;8.57;;;3.63;;
52033;SDS011;38045;52.988;6.536;2023-04-24T07:49:20;3.63;;;2.13;;
52033;SDS011;38045;52.988;6.536;2023-04-24T07:51:46;2.97;;;2.55;;
52033;SDS011;38045;52.988;6.536;2023-04-24T07:54:12;2.40;;;2.25;;
52033;SDS011;38045;52.988;6.536;2023-04-24T07:56:37;3.75;;;2.70;;
52033;SDS011;38045;52.988;6.536;2023-04-24T07:59:04;5.65;;;2.35;;
52033;SDS011;38045;52.988;6.536;2023-04-24T08:01:30;5.90;;;2.17;;
52033;SDS011;38045;52.988;6.536;2023-04-24T08:03:56;1.90;;;1.80;;
52033;SDS011;38045;52.988;6.536;2023-04-24T08:06:21;7.18;;;2.25;;
52033;SDS011;38045;52.988;6.536;2023-04-24T08:08:47;8.18;;;3.13;;
52033;SDS011;38045;52.988;6.536;2023-04-24T08:11:13;5.13;;;3.05;;
52033;SDS011;38045;52.988;6.536;2023-04-24T08:13:38;2.85;;;2.65;;
52033;SDS011;38045;52.988;6.536;2023-04-24T08:16:04;7.35;;;4.75;;
52033;SDS011;38045;52.988;6.536;2023-04-24T08:18:30;8.10;;;7.18;;
52033;SDS011;38045;52.988;6.536;2023-04-24T08:20:55;7.57;;;6.60;;
52033;SDS011;38045;52.988;6.536;2023-04-24T08:23:26;13.75;;;8.95;;
52033;SDS011;38045;52.988;6.536;2023-04-24T08:25:52;12.68;;;9.40;;
52033;SDS011;38045;52.988;6.536;2023-04-24T08:28:17;16.33;;;12.02;;
52033;SDS011;38045;52.988;6.536;2023-04-24T08:30:45;23.88;;;11.23;;
52033;SDS011;38045;52.988;6.536;2023-04-24T08:33:12;16.42;;;10.90;;
52033;SDS011;38045;52.988;6.536;2023-04-24T08:35:38;16.20;;;10.45;;
52033;SDS011;38045;52.988;6.536;2023-04-24T08:38:04;18.23;;;11.82;;
52033;SDS011;38045;52.988;6.536;2023-04-24T08:40:30;13.68;;;9.73;;
52033;SDS011;38045;52.988;6.536;2023-04-24T08:45:25;16.08;;;10.52;;
52033;SDS011;38045;52.988;6.536;2023-04-24T08:47:51;13.50;;;10.65;;
52033;SDS011;38045;52.988;6.536;2023-04-24T08:50:19;12.07;;;10.43;;
52033;SDS011;38045;52.988;6.536;2023-04-24T08:52:46;17.67;;;12.45;;
52033;SDS011;38045;52.988;6.536;2023-04-24T08:55:14;19.27;;;13.00;;
52033;SDS011;38045;52.988;6.536;2023-04-24T08:57:41;24.27;;;13.32;;
52033;SDS011;38045;52.988;6.536;2023-04-24T09:00:10;27.38;;;14.70;;
52033;SDS011;38045;52.988;6.536;2023-04-24T09:02:36;15.13;;;12.98;;
52033;SDS011;38045;52.988;6.536;2023-04-24T09:05:04;25.45;;;16.73;;
52033;SDS011;38045;52.988;6.536;2023-04-24T09:07:31;21.90;;;14.45;;
52033;SDS011;38045;52.988;6.536;2023-04-24T09:10:02;21.13;;;15.00;;
52033;SDS011;38045;52.988;6.536;2023-04-24T09:12:28;22.45;;;14.80;;
52033;SDS011;38045;52.988;6.536;2023-04-24T09:14:53;22.38;;;15.60;;
52033;SDS011;38045;52.988;6.536;2023-04-24T09:17:20;22.95;;;17.33;;
52033;SDS011;38045;52.988;6.536;2023-04-24T09:19:48;24.77;;;16.13;;
52033;SDS011;38045;52.988;6.536;2023-04-24T09:22:13;25.88;;;16.83;;
52033;SDS011;38045;52.988;6.536;2023-04-24T09:24:40;18.05;;;14.18;;
52033;SDS011;38045;52.988;6.536;2023-04-24T09:27:06;15.45;;;13.75;;
52033;SDS011;38045;52.988;6.536;2023-04-24T09:29:32;18.77;;;12.60;;
52033;SDS011;38045;52.988;6.536;2023-04-24T09:31:58;21.33;;;14.38;;
52033;SDS011;38045;52.988;6.536;2023-04-24T09:34:27;15.07;;;12.45;;
52033;SDS011;38045;52.988;6.536;2023-04-24T09:36:53;18.13;;;12.05;;
52033;SDS011;38045;52.988;6.536;2023-04-24T09:39:19;12.63;;;11.13;;
52033;SDS011;38045;52.988;6.536;2023-04-24T09:44:15;16.10;;;12.65;;
52033;SDS011;38045;52.988;6.536;2023-04-24T09:46:41;13.88;;;12.48;;
52033;SDS011;38045;52.988;6.536;2023-04-24T09:49:08;14.63;;;10.02;;
52033;SDS011;38045;52.988;6.536;2023-04-24T09:51:38;11.95;;;10.65;;
52033;SDS011;38045;52.988;6.536;2023-04-24T09:54:11;13.15;;;10.73;;
52033;SDS011;38045;52.988;6.536;2023-04-24T09:56:42;12.77;;;9.43;;
52033;SDS011;38045;52.988;6.536;2023-04-24T09:59:09;9.88;;;5.97;;
52033;SDS011;38045;52.988;6.536;2023-04-24T10:01:35;13.93;;;9.02;;
52033;SDS011;38045;52.988;6.536;2023-04-24T10:04:01;19.98;;;9.75;;
52033;SDS011;38045;52.988;6.536;2023-04-24T10:06:33;12.98;;;7.22;;
52033;SDS011;38045;52.988;6.536;2023-04-24T10:08:59;17.08;;;7.90;;
52033;SDS011;38045;52.988;6.536;2023-04-24T10:11:28;12.98;;;9.15;;
52033;SDS011;38045;52.988;6.536;2023-04-24T10:13:55;8.13;;;6.82;;
52033;SDS011;38045;52.988;6.536;2023-04-24T10:16:22;10.82;;;5.43;;
52033;SDS011;38045;52.988;6.536;2023-04-24T10:18:48;14.77;;;7.10;;
52033;SDS011;38045;52.988;6.536;2023-04-24T10:21:14;9.82;;;3.90;;
52033;SDS011;38045;52.988;6.536;2023-04-24T10:23:41;11.77;;;5.45;;
52033;SDS011;38045;52.988;6.536;2023-04-24T10:26:10;12.75;;;6.35;;
52033;SDS011;38045;52.988;6.536;2023-04-24T10:28:43;11.98;;;4.88;;
52033;SDS011;38045;52.988;6.536;2023-04-24T10:31:10;9.20;;;5.18;;
52033;SDS011;38045;52.988;6.536;2023-04-24T10:33:37;8.43;;;5.65;;
52033;SDS011;38045;52.988;6.536;2023-04-24T10:36:06;9.70;;;4.68;;
52033;SDS011;38045;52.988;6.536;2023-04-24T10:38:33;8.25;;;4.18;;
52033;SDS011;38045;52.988;6.536;2023-04-24T10:41:07;9.00;;;3.10;;
52033;SDS011;38045;52.988;6.536;2023-04-24T10:43:41;7.93;;;3.30;;
52033;SDS011;38045;52.988;6.536;2023-04-24T10:46:07;11.13;;;4.43;;
52033;SDS011;38045;52.988;6.536;2023-04-24T10:48:35;8.20;;;3.05;;
52033;SDS011;38045;52.988;6.536;2023-04-24T10:51:10;11.70;;;4.50;;
52033;SDS011;38045;52.988;6.536;2023-04-24T10:53:37;6.93;;;2.63;;
52033;SDS011;38045;52.988;6.536;2023-04-24T10:56:07;6.65;;;4.35;;
52033;SDS011;38045;52.988;6.536;2023-04-24T10:58:42;4.50;;;2.40;;
52033;SDS011;38045;52.988;6.536;2023-04-24T11:03:54;10.20;;;3.58;;
52033;SDS011;38045;52.988;6.536;2023-04-24T11:06:30;3.50;;;2.33;;
52033;SDS011;38045;52.988;6.536;2023-04-24T11:09:04;2.78;;;2.58;;
52033;SDS011;38045;52.988;6.536;2023-04-24T11:11:31;5.30;;;3.05;;
52033;SDS011;38045;52.988;6.536;2023-04-24T11:18:52;14.30;;;3.15;;
52033;SDS011;38045;52.988;6.536;2023-04-24T11:21:25;6.82;;;2.42;;
52033;SDS011;38045;52.988;6.536;2023-04-24T11:23:56;6.80;;;3.38;;
52033;SDS011;38045;52.988;6.536;2023-04-24T11:26:22;8.00;;;3.45;;
52033;SDS011;38045;52.988;6.536;2023-04-24T11:29:05;8.55;;;2.63;;
52033;SDS011;38045;52.988;6.536;2023-04-24T11:31:44;10.95;;;3.40;;
52033;SDS011;38045;52.988;6.536;2023-04-24T11:34:15;12.30;;;2.38;;
52033;SDS011;38045;52.988;6.536;2023-04-24T11:36:45;2.65;;;1.92;;
52033;SDS011;38045;52.988;6.536;2023-04-24T11:39:12;6.90;;;2.58;;
52033;SDS011;38045;52.988;6.536;2023-04-24T11:41:38;6.45;;;2.17;;
52033;SDS011;38045;52.988;6.536;2023-04-24T11:44:05;1.63;;;1.33;;
52033;SDS011;38045;52.988;6.536;2023-04-24T11:46:32;9.13;;;3.88;;
52033;SDS011;38045;52.988;6.536;2023-04-24T11:48:58;2.95;;;2.17;;
52033;SDS011;38045;52.988;6.536;2023-04-24T11:51:25;5.95;;;2.42;;
52033;SDS011;38045;52.988;6.536;2023-04-24T11:53:52;5.32;;;2.22;;
52033;SDS011;38045;52.988;6.536;2023-04-24T11:56:21;6.90;;;1.98;;
52033;SDS011;38045;52.988;6.536;2023-04-24T11:58:48;9.40;;;2.45;;
52033;SDS011;38045;52.988;6.536;2023-04-24T12:01:14;4.50;;;2.20;;
52033;SDS011;38045;52.988;6.536;2023-04-24T12:03:40;4.68;;;1.42;;
52033;SDS011;38045;52.988;6.536;2023-04-24T12:06:09;3.72;;;1.55;;
52033;SDS011;38045;52.988;6.536;2023-04-24T12:08:36;4.43;;;1.35;;
52033;SDS011;38045;52.988;6.536;2023-04-24T12:11:03;3.83;;;1.90;;
52033;SDS011;38045;52.988;6.536;2023-04-24T12:13:31;9.02;;;2.13;;
52033;SDS011;38045;52.988;6.536;2023-04-24T12:15:58;8.43;;;1.58;;
52033;SDS011;38045;52.988;6.536;2023-04-24T12:18:23;8.07;;;2.10;;
52033;SDS011;38045;52.988;6.536;2023-04-24T12:20:50;7.88;;;1.83;;
52033;SDS011;38045;52.988;6.536;2023-04-24T12:23:16;8.52;;;2.15;;
52033;SDS011;38045;52.988;6.536;2023-04-24T12:25:42;4.93;;;1.23;;
52033;SDS011;38045;52.988;6.536;2023-04-24T12:28:12;3.17;;;1.65;;
52033;SDS011;38045;52.988;6.536;2023-04-24T12:30:46;4.15;;;1.73;;
52033;SDS011;38045;52.988;6.536;2023-04-24T12:33:17;3.25;;;2.17;;
52033;SDS011;38045;52.988;6.536;2023-04-24T12:35:44;3.10;;;1.20;;
52033;SDS011;38045;52.988;6.536;2023-04-24T12:38:11;2.50;;;1.13;;
52033;SDS011;38045;52.988;6.536;2023-04-24T12:40:38;4.20;;;1.08;;
52033;SDS011;38045;52.988;6.536;2023-04-24T12:43:12;4.55;;;1.35;;
52033;SDS011;38045;52.988;6.536;2023-04-24T12:45:40;3.53;;;1.38;;
52033;SDS011;38045;52.988;6.536;2023-04-24T12:48:05;0.98;;;0.68;;
52033;SDS011;38045;52.988;6.536;2023-04-24T12:50:34;4.80;;;1.65;;
52033;SDS011;38045;52.988;6.536;2023-04-24T12:53:00;0.93;;;0.55;;
52033;SDS011;38045;52.988;6.536;2023-04-24T12:55:25;3.33;;;1.13;;
52033;SDS011;38045;52.988;6.536;2023-04-24T12:57:51;5.28;;;1.48;;
52033;SDS011;38045;52.988;6.536;2023-04-24T13:00:18;4.28;;;1.33;;
52033;SDS011;38045;52.988;6.536;2023-04-24T13:02:43;3.42;;;1.30;;
52033;SDS011;38045;52.988;6.536;2023-04-24T13:05:09;1.98;;;1.08;;
52033;SDS011;38045;52.988;6.536;2023-04-24T13:07:36;5.38;;;1.30;;
52033;SDS011;38045;52.988;6.536;2023-04-24T13:10:02;5.25;;;1.35;;
52033;SDS011;38045;52.988;6.536;2023-04-24T13:12:27;2.63;;;0.73;;
52033;SDS011;38045;52.988;6.536;2023-04-24T13:14:53;2.50;;;0.90;;
52033;SDS011;38045;52.988;6.536;2023-04-24T13:17:19;4.35;;;1.02;;
52033;SDS011;38045;52.988;6.536;2023-04-24T13:19:45;4.43;;;1.50;;
52033;SDS011;38045;52.988;6.536;2023-04-24T13:22:11;4.18;;;1.48;;
52033;SDS011;38045;52.988;6.536;2023-04-24T13:24:37;2.97;;;1.50;;
52033;SDS011;38045;52.988;6.536;2023-04-24T13:27:05;2.72;;;1.45;;
52033;SDS011;38045;52.988;6.536;2023-04-24T13:29:31;4.80;;;1.20;;
52033;SDS011;38045;52.988;6.536;2023-04-24T13:31:58;4.30;;;1.00;;
52033;SDS011;38045;52.988;6.536;2023-04-24T13:34:24;2.55;;;0.88;;
52033;SDS011;38045;52.988;6.536;2023-04-24T13:36:52;5.00;;;0.98;;
52033;SDS011;38045;52.988;6.536;2023-04-24T13:39:18;4.20;;;1.33;;
52033;SDS011;38045;52.988;6.536;2023-04-24T13:41:44;3.72;;;0.55;;
52033;SDS011;38045;52.988;6.536;2023-04-24T13:44:12;4.20;;;1.08;;
52033;SDS011;38045;52.988;6.536;2023-04-24T13:46:37;0.57;;;0.40;;
52033;SDS011;38045;52.988;6.536;2023-04-24T13:49:03;0.68;;;0.55;;
52033;SDS011;38045;52.988;6.536;2023-04-24T13:51:29;1.60;;;0.82;;
52033;SDS011;38045;52.988;6.536;2023-04-24T13:53:55;4.60;;;2.20;;
52033;SDS011;38045;52.988;6.536;2023-04-24T13:56:21;1.83;;;1.08;;
52033;SDS011;38045;52.988;6.536;2023-04-24T13:58:47;5.28;;;1.02;;
52033;SDS011;38045;52.988;6.536;2023-04-24T14:01:13;2.35;;;1.35;;
52033;SDS011;38045;52.988;6.536;2023-04-24T14:03:39;1.63;;;1.02;;
52033;SDS011;38045;52.988;6.536;2023-04-24T14:06:05;3.72;;;1.08;;
52033;SDS011;38045;52.988;6.536;2023-04-24T14:08:31;4.22;;;1.10;;
52033;SDS011;38045;52.988;6.536;2023-04-24T14:10:57;4.00;;;0.90;;
52033;SDS011;38045;52.988;6.536;2023-04-24T14:13:23;5.43;;;1.42;;
52033;SDS011;38045;52.988;6.536;2023-04-24T14:15:49;3.20;;;1.40;;
52033;SDS011;38045;52.988;6.536;2023-04-24T14:18:14;2.50;;;1.20;;
52033;SDS011;38045;52.988;6.536;2023-04-24T14:20:40;1.48;;;1.33;;
52033;SDS011;38045;52.988;6.536;2023-04-24T14:23:05;9.27;;;2.10;;
52033;SDS011;38045;52.988;6.536;2023-04-24T14:25:31;7.32;;;2.03;;
52033;SDS011;38045;52.988;6.536;2023-04-24T14:27:57;4.05;;;1.80;;
52033;SDS011;38045;52.988;6.536;2023-04-24T14:30:22;11.55;;;3.40;;
52033;SDS011;38045;52.988;6.536;2023-04-24T14:32:48;7.85;;;1.42;;
52033;SDS011;38045;52.988;6.536;2023-04-24T14:35:14;10.43;;;2.80;;
52033;SDS011;38045;52.988;6.536;2023-04-24T14:37:40;6.53;;;2.13;;
52033;SDS011;38045;52.988;6.536;2023-04-24T14:40:06;7.70;;;2.28;;
52033;SDS011;38045;52.988;6.536;2023-04-24T14:42:33;7.07;;;1.13;;
52033;SDS011;38045;52.988;6.536;2023-04-24T14:44:59;3.58;;;1.33;;
52033;SDS011;38045;52.988;6.536;2023-04-24T14:47:24;6.13;;;2.60;;
52033;SDS011;38045;52.988;6.536;2023-04-24T14:49:50;12.43;;;3.55;;
52033;SDS011;38045;52.988;6.536;2023-04-24T14:52:16;9.80;;;2.33;;
52033;SDS011;38045;52.988;6.536;2023-04-24T14:54:42;7.57;;;2.28;;
52033;SDS011;38045;52.988;6.536;2023-04-24T14:57:08;17.10;;;3.65;;